createdAt,value
2018-01-19T00:01:32.703Z,4.53
2018-01-19T00:04:01.086Z,5.15
2018-01-19T00:06:29.457Z,4.40
2018-01-19T00:08:57.800Z,4.97
2018-01-19T00:11:26.201Z,4.40
2018-01-19T00:13:54.575Z,3.50
2018-01-19T00:16:22.913Z,3.67
2018-01-19T00:18:51.260Z,4.10
2018-01-19T00:21:19.569Z,3.78
2018-01-19T00:23:47.880Z,3.58
2018-01-19T00:26:16.241Z,3.47
2018-01-19T00:28:44.566Z,3.90
2018-01-19T00:31:12.897Z,4.03
2018-01-19T00:33:41.252Z,3.92
2018-01-19T00:36:09.560Z,3.62
2018-01-19T00:38:37.875Z,3.85
2018-01-19T00:41:06.249Z,3.40
2018-01-19T00:43:34.573Z,3.80
2018-01-19T00:46:02.940Z,4.55
2018-01-19T00:48:31.262Z,3.55
2018-01-19T00:50:59.594Z,4.43
2018-01-19T00:53:27.923Z,3.97
2018-01-19T00:55:56.274Z,3.95
2018-01-19T00:58:24.644Z,3.90
2018-01-19T01:00:52.947Z,2.78
2018-01-19T01:03:21.317Z,3.20
2018-01-19T01:05:49.665Z,3.12
2018-01-19T01:08:18.019Z,3.08
2018-01-19T01:10:46.431Z,2.95
2018-01-19T01:13:14.750Z,4.10
2018-01-19T01:15:43.093Z,3.67
2018-01-19T01:18:11.444Z,3.40
2018-01-19T01:20:39.796Z,3.70
2018-01-19T01:23:08.136Z,3.03
2018-01-19T01:25:36.497Z,2.80
2018-01-19T01:28:04.801Z,3.08
2018-01-19T01:30:33.124Z,2.90
2018-01-19T01:33:01.501Z,2.85
2018-01-19T01:35:29.856Z,2.10
2018-01-19T01:37:58.193Z,2.65
2018-01-19T01:40:26.539Z,3.37
2018-01-19T01:42:54.886Z,2.67
2018-01-19T01:45:23.229Z,3.42
2018-01-19T01:47:51.587Z,3.03
2018-01-19T01:50:19.911Z,3.12
2018-01-19T01:52:48.281Z,2.80
2018-01-19T01:55:16.658Z,3.45
2018-01-19T01:57:44.981Z,2.90
2018-01-19T02:00:13.301Z,2.92
2018-01-19T02:02:41.650Z,3.10
2018-01-19T02:05:09.963Z,3.65
2018-01-19T02:07:38.326Z,3.17
2018-01-19T02:10:06.737Z,3.40
2018-01-19T02:12:35.044Z,2.80
2018-01-19T02:15:03.388Z,3.00
2018-01-19T02:17:31.751Z,3.00
2018-01-19T02:20:00.128Z,2.83
2018-01-19T02:22:28.459Z,3.67
2018-01-19T02:24:56.804Z,2.78
2018-01-19T02:27:25.137Z,2.80
2018-01-19T02:29:53.477Z,3.05
2018-01-19T02:32:21.827Z,2.67
2018-01-19T02:34:50.186Z,2.45
2018-01-19T02:37:18.490Z,2.92
2018-01-19T02:39:46.874Z,3.30
2018-01-19T02:42:15.268Z,3.70
2018-01-19T02:44:43.593Z,3.50
2018-01-19T02:47:12.003Z,3.30
2018-01-19T02:49:40.312Z,3.30
2018-01-19T02:52:08.631Z,4.10
2018-01-19T02:54:36.997Z,3.10
2018-01-19T02:57:05.320Z,3.85
2018-01-19T02:59:33.662Z,2.67
2018-01-19T03:02:01.998Z,3.40
2018-01-19T03:04:30.375Z,2.85
2018-01-19T03:06:58.696Z,4.47
2018-01-19T03:09:27.065Z,4.50
2018-01-19T03:11:55.406Z,4.25
2018-01-19T03:14:23.729Z,4.57
2018-01-19T03:16:52.160Z,4.43
2018-01-19T03:19:20.518Z,4.62
2018-01-19T03:21:48.840Z,3.70
2018-01-19T03:24:17.194Z,3.70
2018-01-19T03:26:45.517Z,4.00
2018-01-19T03:29:13.847Z,4.40
2018-01-19T03:31:42.283Z,5.40
2018-01-19T03:34:10.604Z,4.78
2018-01-19T03:36:38.938Z,4.72
2018-01-19T03:39:07.316Z,5.65
2018-01-19T03:41:35.653Z,5.18
2018-01-19T03:44:03.974Z,4.60
2018-01-19T03:46:32.358Z,4.30
2018-01-19T03:49:00.664Z,5.43
2018-01-19T03:51:28.988Z,5.62
2018-01-19T03:53:57.363Z,5.60
2018-01-19T03:56:25.682Z,5.50
2018-01-19T03:58:54.058Z,5.28
2018-01-19T04:01:22.414Z,5.50
2018-01-19T04:03:50.740Z,5.35
2018-01-19T04:06:19.064Z,5.82
2018-01-19T04:08:47.423Z,5.80
2018-01-19T04:11:15.771Z,5.40
2018-01-19T04:13:44.077Z,6.07
2018-01-19T04:16:12.492Z,5.68
2018-01-19T04:18:40.830Z,5.82
2018-01-19T04:21:09.161Z,4.95
2018-01-19T04:23:37.489Z,6.07
2018-01-19T04:26:05.827Z,5.68
2018-01-19T04:28:34.148Z,5.93
2018-01-19T04:31:02.506Z,5.28
2018-01-19T04:33:30.834Z,4.97
2018-01-19T04:35:59.162Z,5.55
2018-01-19T04:38:27.560Z,5.60
2018-01-19T04:40:55.926Z,5.20
2018-01-19T04:43:24.251Z,5.35
2018-01-19T04:45:52.647Z,5.80
2018-01-19T04:48:21.006Z,5.12
2018-01-19T04:50:49.332Z,6.47
2018-01-19T04:53:17.688Z,6.40
2018-01-19T04:55:46.018Z,7.75
2018-01-19T04:58:14.386Z,5.62
2018-01-19T05:00:42.761Z,6.12
2018-01-19T05:03:11.108Z,6.35
2018-01-19T05:05:39.453Z,5.95
2018-01-19T05:08:07.780Z,5.80
2018-01-19T05:10:36.139Z,6.00
2018-01-19T05:13:04.452Z,6.82
2018-01-19T05:15:32.804Z,5.95
2018-01-19T05:18:01.126Z,6.00
2018-01-19T05:20:29.441Z,6.25
2018-01-19T05:22:57.800Z,6.70
2018-01-19T05:25:26.125Z,6.87
2018-01-19T05:27:54.459Z,6.95
2018-01-19T05:30:22.878Z,6.85
2018-01-19T05:32:51.264Z,7.57
2018-01-19T05:35:19.606Z,7.70
2018-01-19T05:37:47.989Z,7.25
2018-01-19T05:40:16.342Z,7.45
2018-01-19T05:42:44.690Z,5.95
2018-01-19T05:45:13.052Z,6.55
2018-01-19T05:47:41.420Z,6.72
2018-01-19T05:50:09.754Z,7.28
2018-01-19T05:52:38.094Z,7.15
2018-01-19T05:55:06.427Z,6.97
2018-01-19T05:57:34.775Z,6.87
2018-01-19T06:00:03.158Z,6.70
2018-01-19T06:02:31.487Z,6.60
2018-01-19T06:04:59.827Z,7.03
2018-01-19T06:07:28.177Z,6.65
2018-01-19T06:09:56.529Z,6.80
2018-01-19T06:12:24.872Z,6.97
2018-01-19T06:14:53.229Z,9.57
2018-01-19T06:17:21.583Z,8.82
2018-01-19T06:19:49.935Z,8.40
2018-01-19T06:22:18.270Z,7.55
2018-01-19T06:24:46.628Z,8.48
2018-01-19T06:27:14.968Z,7.85
2018-01-19T06:29:43.325Z,8.25
2018-01-19T06:32:11.663Z,8.02
2018-01-19T06:34:39.982Z,8.40
2018-01-19T06:37:08.320Z,7.82
2018-01-19T06:39:36.773Z,7.62
2018-01-19T06:42:05.082Z,10.30
2018-01-19T06:44:33.425Z,8.93
2018-01-19T06:47:01.744Z,7.90
2018-01-19T06:49:30.131Z,12.07
2018-01-19T06:51:58.486Z,10.40
2018-01-19T06:54:26.810Z,11.75
2018-01-19T06:56:55.200Z,9.60
2018-01-19T06:59:23.653Z,8.40
2018-01-19T07:01:52.008Z,8.73
2018-01-19T07:04:20.341Z,9.50
2018-01-19T07:06:48.686Z,8.55
2018-01-19T07:09:17.028Z,9.27
2018-01-19T07:11:45.353Z,8.95
2018-01-19T07:14:13.734Z,8.85
2018-01-19T07:16:42.077Z,8.57
2018-01-19T07:19:10.428Z,9.73
2018-01-19T07:21:38.790Z,8.82
2018-01-19T07:24:07.271Z,9.43
2018-01-19T07:26:35.606Z,9.30
2018-01-19T07:29:12.522Z,8.38
2018-01-19T07:31:42.931Z,9.23
2018-01-19T07:34:11.253Z,8.57
2018-01-19T07:36:39.609Z,9.63
2018-01-19T07:39:07.993Z,9.13
2018-01-19T07:41:36.292Z,8.80
2018-01-19T07:44:04.647Z,8.93
2018-01-19T07:46:32.958Z,8.38
2018-01-19T07:49:01.331Z,8.70
2018-01-19T07:51:29.702Z,8.93
2018-01-19T07:53:58.066Z,10.30
2018-01-19T07:56:26.394Z,8.90
2018-01-19T07:58:54.747Z,8.77
2018-01-19T08:01:23.080Z,7.57
2018-01-19T08:03:51.413Z,7.93
2018-01-19T08:06:19.780Z,8.23
2018-01-19T08:08:48.120Z,8.40
2018-01-19T08:11:16.452Z,7.78
2018-01-19T08:13:44.818Z,9.10
2018-01-19T08:16:13.143Z,9.82
2018-01-19T08:18:41.494Z,8.55
2018-01-19T08:21:09.925Z,7.97
2018-01-19T08:23:38.322Z,9.00
2018-01-19T08:26:06.636Z,8.90
2018-01-19T08:28:34.989Z,8.45
2018-01-19T08:31:04.399Z,8.88
2018-01-19T08:33:32.794Z,7.50
2018-01-19T08:36:01.202Z,8.05
2018-01-19T08:38:29.530Z,8.05
2018-01-19T08:40:57.903Z,7.47
2018-01-19T08:43:26.273Z,7.57
2018-01-19T08:45:54.606Z,7.50
2018-01-19T08:48:22.936Z,7.85
2018-01-19T08:50:51.282Z,7.37
2018-01-19T08:53:19.630Z,8.95
2018-01-19T08:55:47.956Z,8.10
2018-01-19T08:58:16.332Z,7.87
2018-01-19T09:00:48.013Z,6.65
2018-01-19T09:03:28.499Z,7.05
2018-01-19T09:05:56.861Z,7.45
2018-01-19T09:08:25.195Z,7.72
2018-01-19T09:10:53.541Z,8.35
2018-01-19T09:13:21.883Z,7.80
2018-01-19T09:15:50.246Z,7.40
2018-01-19T09:18:18.661Z,6.72
2018-01-19T09:20:47.048Z,7.50
2018-01-19T09:23:15.377Z,7.22
2018-01-19T09:25:43.758Z,7.70
2018-01-19T09:28:12.120Z,6.93
2018-01-19T09:30:40.458Z,6.70
2018-01-19T09:33:08.835Z,6.28
2018-01-19T09:35:37.205Z,7.03
2018-01-19T09:38:05.561Z,6.78
2018-01-19T09:40:33.986Z,7.10
2018-01-19T09:43:02.309Z,7.18
2018-01-19T09:45:30.657Z,6.37
2018-01-19T09:47:59.009Z,5.93
2018-01-19T09:50:27.401Z,6.70
2018-01-19T09:52:55.754Z,5.85
2018-01-19T09:55:24.130Z,6.43
2018-01-19T09:57:52.460Z,6.60
2018-01-19T10:00:20.785Z,5.72
2018-01-19T10:02:49.147Z,5.95
2018-01-19T10:05:17.534Z,6.45
2018-01-19T10:07:45.889Z,5.85
2018-01-19T10:10:14.260Z,6.12
2018-01-19T10:12:42.622Z,5.50
2018-01-19T10:15:11.014Z,5.72
2018-01-19T10:17:39.365Z,6.30
2018-01-19T10:20:07.709Z,6.37
2018-01-19T10:22:36.136Z,6.37
2018-01-19T10:25:04.570Z,6.65
2018-01-19T10:27:32.967Z,6.10
2018-01-19T10:30:01.329Z,6.00
2018-01-19T10:32:29.729Z,4.55
2018-01-19T10:34:58.071Z,4.53
2018-01-19T10:37:26.430Z,4.00
2018-01-19T10:40:14.975Z,3.75
2018-01-19T10:42:43.323Z,3.30
2018-01-19T10:45:18.506Z,2.40
2018-01-19T10:47:46.861Z,1.83
2018-01-19T10:50:15.078Z,2.10
2018-01-19T10:52:41.896Z,1.40
2018-01-19T10:55:12.369Z,0.90
2018-01-19T10:57:39.054Z,1.02
2018-01-19T11:00:06.875Z,1.02
2018-01-19T11:02:33.573Z,0.77
2018-01-19T11:05:00.278Z,0.65
2018-01-19T11:07:27.765Z,0.70
2018-01-19T11:09:54.478Z,0.60
2018-01-19T11:12:21.954Z,1.05
2018-01-19T11:14:48.733Z,0.80
2018-01-19T11:17:15.491Z,1.00
2018-01-19T11:19:42.269Z,1.00
2018-01-19T11:22:09.052Z,0.98
2018-01-19T11:24:35.820Z,1.00
2018-01-19T11:27:02.520Z,0.70
2018-01-19T11:29:30.024Z,0.93
2018-01-19T11:31:56.732Z,1.10
2018-01-19T11:34:24.314Z,1.00
2018-01-19T11:36:51.073Z,0.85
2018-01-19T11:39:17.771Z,0.62
2018-01-19T11:41:45.234Z,1.00
2018-01-19T11:44:12.709Z,0.73
2018-01-19T11:46:39.474Z,0.70
2018-01-19T11:49:06.204Z,0.70
2018-01-19T11:51:33.658Z,0.80
2018-01-19T11:54:00.342Z,0.80
2018-01-19T11:56:27.080Z,0.80
2018-01-19T11:58:53.910Z,1.02
2018-01-19T12:01:20.666Z,1.00
2018-01-19T12:03:47.395Z,0.98
2018-01-19T12:06:14.127Z,0.70
2018-01-19T12:08:40.913Z,1.00
2018-01-19T12:11:07.646Z,0.85
2018-01-19T12:13:34.410Z,1.03
2018-01-19T12:16:01.151Z,0.80
2018-01-19T12:18:27.858Z,1.00
2018-01-19T12:20:54.627Z,1.23
2018-01-19T12:23:21.300Z,1.20
2018-01-19T12:25:48.006Z,1.40
2018-01-19T12:28:14.701Z,1.90
2018-01-19T12:30:42.132Z,1.13
2018-01-19T12:33:08.803Z,1.67
2018-01-19T12:35:36.258Z,1.00
2018-01-19T12:38:03.024Z,1.00
2018-01-19T12:40:30.468Z,1.10
2018-01-19T12:42:57.949Z,1.90
2018-01-19T12:45:25.728Z,1.83
2018-01-19T12:47:52.414Z,1.20
2018-01-19T12:50:19.117Z,1.40
2018-01-19T12:52:45.929Z,1.55
2018-01-19T12:55:13.377Z,1.00
2018-01-19T12:57:40.092Z,1.00
2018-01-19T13:00:06.877Z,1.20
2018-01-19T13:02:34.327Z,1.08
2018-01-19T13:05:00.997Z,1.20
2018-01-19T13:07:27.673Z,1.20
2018-01-19T13:09:54.329Z,1.20
2018-01-19T13:12:21.058Z,1.20
2018-01-19T13:14:47.751Z,1.20
2018-01-19T13:17:14.494Z,2.23
2018-01-19T13:19:41.165Z,0.83
2018-01-19T13:22:07.872Z,2.37
2018-01-19T13:24:34.593Z,1.30
2018-01-19T13:27:01.307Z,0.85
2018-01-19T13:29:28.023Z,1.47
2018-01-19T13:31:54.680Z,1.13
2018-01-19T13:34:21.407Z,1.50
2018-01-19T13:36:48.864Z,1.57
2018-01-19T13:39:16.298Z,1.40
2018-01-19T13:41:43.064Z,1.47
2018-01-19T13:44:11.378Z,1.60
2018-01-19T13:46:39.701Z,1.00
2018-01-19T13:49:08.097Z,1.20
2018-01-19T13:51:36.432Z,1.70
2018-01-19T13:54:04.785Z,1.50
2018-01-19T13:56:33.184Z,0.70
2018-01-19T13:59:01.522Z,1.10
2018-01-19T14:01:29.850Z,1.10
2018-01-19T14:03:58.233Z,1.75
2018-01-19T14:06:26.547Z,1.30
2018-01-19T14:08:54.880Z,0.80
2018-01-19T14:11:23.257Z,5.68
2018-01-19T14:13:51.628Z,6.83
2018-01-19T14:16:19.932Z,8.27
2018-01-19T14:18:48.301Z,11.85
2018-01-19T14:21:16.620Z,10.65
2018-01-19T14:23:45.023Z,12.43
2018-01-19T14:26:13.398Z,11.82
2018-01-19T14:28:41.740Z,12.27
2018-01-19T14:31:10.094Z,11.57
2018-01-19T14:33:38.544Z,11.75
2018-01-19T14:36:06.909Z,12.48
2018-01-19T14:38:35.248Z,11.55
2018-01-19T14:41:03.595Z,11.35
2018-01-19T14:43:31.925Z,11.05
2018-01-19T14:46:00.226Z,12.05
2018-01-19T14:48:28.576Z,8.23
2018-01-19T14:50:56.892Z,11.07
2018-01-19T14:53:26.233Z,11.23
2018-01-19T14:55:54.746Z,10.82
2018-01-19T14:58:23.055Z,11.43
2018-01-19T15:00:51.433Z,8.70
2018-01-19T15:03:19.807Z,8.30
2018-01-19T15:05:48.154Z,8.70
2018-01-19T15:08:16.511Z,7.78
2018-01-19T15:10:44.926Z,8.27
2018-01-19T15:13:13.258Z,9.50
2018-01-19T15:15:41.605Z,8.35
2018-01-19T15:18:09.960Z,9.02
2018-01-19T15:20:38.306Z,8.65
2018-01-19T15:23:06.769Z,7.53
2018-01-19T15:25:35.145Z,8.60
2018-01-19T15:28:03.447Z,8.40
2018-01-19T15:30:31.817Z,9.02
2018-01-19T15:33:00.301Z,10.75
2018-01-19T15:35:28.662Z,10.13
2018-01-19T15:37:57.137Z,10.77
2018-01-19T15:40:25.487Z,11.32
2018-01-19T15:42:53.840Z,9.93
2018-01-19T15:45:22.205Z,10.80
2018-01-19T15:47:50.580Z,11.20
2018-01-19T15:50:18.970Z,10.00
2018-01-19T15:52:47.311Z,10.35
2018-01-19T15:55:15.670Z,9.57
2018-01-19T15:57:44.006Z,9.68
2018-01-19T16:00:12.361Z,10.00
2018-01-19T16:02:40.761Z,8.40
2018-01-19T16:05:09.092Z,7.90
2018-01-19T16:07:37.394Z,8.48
2018-01-19T16:10:05.797Z,11.50
2018-01-19T16:12:34.133Z,9.00
2018-01-19T16:15:02.507Z,10.93
2018-01-19T16:17:30.841Z,9.43
2018-01-19T16:19:59.171Z,10.95
2018-01-19T16:22:27.497Z,12.70
2018-01-19T16:24:55.831Z,12.27
2018-01-19T16:27:24.176Z,12.68
2018-01-19T16:29:52.594Z,12.15
2018-01-19T16:32:20.953Z,11.63
2018-01-19T16:34:49.285Z,15.32
2018-01-19T16:37:17.709Z,12.68
2018-01-19T16:39:46.089Z,14.45
2018-01-19T16:42:14.427Z,12.40
2018-01-19T16:44:42.845Z,12.00
2018-01-19T16:47:11.279Z,13.13
2018-01-19T16:49:39.671Z,12.80
2018-01-19T16:52:08.005Z,11.77
2018-01-19T16:54:36.340Z,11.82
2018-01-19T16:57:04.666Z,11.60
2018-01-19T16:59:33.016Z,12.15
2018-01-19T17:02:01.405Z,12.73
2018-01-19T17:04:29.909Z,10.52
2018-01-19T17:06:58.242Z,11.10
2018-01-19T17:09:26.594Z,12.98
2018-01-19T17:11:54.960Z,13.90
2018-01-19T17:14:23.304Z,12.43
2018-01-19T17:16:51.690Z,12.07
2018-01-19T17:19:20.079Z,14.45
2018-01-19T17:21:48.401Z,14.02
2018-01-19T17:24:16.741Z,10.93
2018-01-19T17:26:45.080Z,11.70
2018-01-19T17:29:13.408Z,13.73
2018-01-19T17:31:41.844Z,14.70
2018-01-19T17:34:10.149Z,12.65
2018-01-19T17:36:38.507Z,11.77
2018-01-19T17:39:06.906Z,12.68
2018-01-19T17:41:35.279Z,12.93
2018-01-19T17:44:03.730Z,13.13
2018-01-19T17:46:32.098Z,12.70
2018-01-19T17:49:00.418Z,12.60
2018-01-19T17:51:28.783Z,14.70
2018-01-19T17:53:57.134Z,13.10
2018-01-19T17:56:25.431Z,13.10
2018-01-19T17:58:53.820Z,11.73
2018-01-19T18:01:22.195Z,12.80
2018-01-19T18:03:50.545Z,9.60
2018-01-19T18:06:18.881Z,11.32
2018-01-19T18:08:47.313Z,14.25
2018-01-19T18:11:15.720Z,12.63
2018-01-19T18:13:44.052Z,14.18
2018-01-19T18:16:12.439Z,13.60
2018-01-19T18:18:40.775Z,12.10
2018-01-19T18:21:09.185Z,11.30
2018-01-19T18:23:37.533Z,12.27
2018-01-19T18:26:05.852Z,12.68
2018-01-19T18:28:34.193Z,12.70
2018-01-19T18:31:02.627Z,11.98
2018-01-19T18:33:31.007Z,11.63
2018-01-19T18:35:59.353Z,14.38
2018-01-19T18:38:27.693Z,27.42
2018-01-19T18:40:56.003Z,17.45
2018-01-19T18:43:24.346Z,12.35
2018-01-19T18:45:52.693Z,13.48
2018-01-19T18:48:21.053Z,12.30
2018-01-19T18:50:49.380Z,12.00
2018-01-19T18:53:17.783Z,11.95
2018-01-19T18:55:46.102Z,14.38
2018-01-19T18:58:14.468Z,14.40
2018-01-19T19:00:42.804Z,14.43
2018-01-19T19:03:11.152Z,13.68
2018-01-19T19:05:39.495Z,14.48
2018-01-19T19:08:07.897Z,15.13
2018-01-19T19:10:36.218Z,14.85
2018-01-19T19:13:04.581Z,14.55
2018-01-19T19:15:32.969Z,12.25
2018-01-19T19:18:01.913Z,13.95
2018-01-19T19:20:30.338Z,14.40
2018-01-19T19:22:58.721Z,14.02
2018-01-19T19:25:27.088Z,13.05
2018-01-19T19:27:55.441Z,13.35
2018-01-19T19:30:23.786Z,14.85
2018-01-19T19:32:52.166Z,14.38
2018-01-19T19:35:20.513Z,13.15
2018-01-19T19:37:48.899Z,14.48
2018-01-19T19:40:17.218Z,13.23
2018-01-19T19:42:45.582Z,12.07
2018-01-19T19:45:13.969Z,12.43
2018-01-19T19:47:42.338Z,11.45
2018-01-19T19:50:10.674Z,11.60
2018-01-19T19:52:39.004Z,10.65
2018-01-19T19:55:07.593Z,9.88
2018-01-19T19:57:36.097Z,13.02
2018-01-19T20:00:04.663Z,12.23
2018-01-19T20:02:33.224Z,10.15
2018-01-19T20:05:01.606Z,10.38
2018-01-19T20:07:29.944Z,10.43
2018-01-19T20:09:58.378Z,11.65
2018-01-19T20:12:26.773Z,12.85
2018-01-19T20:14:55.180Z,13.13
2018-01-19T20:17:23.667Z,14.60
2018-01-19T20:19:52.044Z,14.05
2018-01-19T20:22:20.425Z,14.63
2018-01-19T20:24:48.766Z,18.35
2018-01-19T20:27:17.114Z,19.80
2018-01-19T20:29:45.479Z,19.05
2018-01-19T20:32:21.022Z,18.98
2018-01-19T20:34:49.485Z,18.08
2018-01-19T20:37:18.124Z,17.42
2018-01-19T20:39:46.549Z,16.08
2018-01-19T20:42:14.910Z,13.65
2018-01-19T20:44:43.377Z,14.00
2018-01-19T20:47:11.727Z,14.23
2018-01-19T20:49:40.094Z,14.00
2018-01-19T20:52:08.448Z,13.18
2018-01-19T20:54:37.007Z,12.45
2018-01-19T20:57:05.528Z,11.98
2018-01-19T20:59:34.188Z,12.48
2018-01-19T21:02:02.605Z,10.73
2018-01-19T21:04:31.014Z,10.60
2018-01-19T21:06:59.548Z,10.20
2018-01-19T21:09:27.972Z,9.00
2018-01-19T21:11:56.288Z,9.65
2018-01-19T21:14:24.670Z,10.60
2018-01-19T21:16:53.112Z,9.50
2018-01-19T21:19:21.485Z,8.40
2018-01-19T21:21:49.832Z,10.00
2018-01-19T21:24:18.221Z,10.18
2018-01-19T21:26:46.643Z,9.77
2018-01-19T21:29:15.036Z,9.20
2018-01-19T21:31:43.432Z,8.05
2018-01-19T21:34:11.774Z,8.82
2018-01-19T21:36:40.112Z,8.80
2018-01-19T21:39:08.433Z,9.63
2018-01-19T21:41:36.868Z,8.55
2018-01-19T21:44:05.232Z,9.88
2018-01-19T21:46:33.587Z,10.02
2018-01-19T21:49:01.942Z,7.85
2018-01-19T21:51:30.245Z,9.20
2018-01-19T21:53:58.638Z,8.32
2018-01-19T21:56:27.058Z,8.25
2018-01-19T21:58:55.442Z,8.50
2018-01-19T22:01:23.808Z,8.13
2018-01-19T22:03:52.142Z,9.38
2018-01-19T22:06:20.470Z,8.35
2018-01-19T22:08:48.917Z,9.48
2018-01-19T22:11:17.440Z,9.05
2018-01-19T22:13:45.838Z,10.60
2018-01-19T22:16:14.182Z,11.52
2018-01-19T22:18:42.549Z,10.63
2018-01-19T22:21:10.945Z,10.23
2018-01-19T22:23:39.294Z,8.85
2018-01-19T22:26:07.671Z,8.70
2018-01-19T22:28:36.013Z,9.95
2018-01-19T22:31:04.561Z,10.50
2018-01-19T22:33:33.022Z,10.32
2018-01-19T22:36:01.614Z,9.77
2018-01-19T22:38:30.056Z,9.15
2018-01-19T22:40:58.465Z,8.80
2018-01-19T22:43:26.794Z,9.55
2018-01-19T22:45:55.167Z,10.43
2018-01-19T22:48:23.541Z,9.85
2018-01-19T22:50:51.892Z,10.07
2018-01-19T22:53:20.208Z,9.90
2018-01-19T22:55:48.616Z,8.90
2018-01-19T22:58:17.038Z,7.47
2018-01-19T23:00:45.512Z,8.45
2018-01-19T23:03:13.870Z,8.20
2018-01-19T23:05:43.026Z,8.57
2018-01-19T23:08:11.345Z,8.40
2018-01-19T23:10:39.732Z,8.15
2018-01-19T23:13:08.041Z,7.90
2018-01-19T23:15:36.364Z,7.35
2018-01-19T23:18:04.764Z,7.50
2018-01-19T23:20:33.277Z,7.78
2018-01-19T23:23:01.623Z,7.12
2018-01-19T23:25:30.016Z,7.45
2018-01-19T23:27:58.333Z,7.78
2018-01-19T23:30:26.701Z,6.78
2018-01-19T23:32:55.083Z,7.12
2018-01-19T23:35:23.405Z,6.90
2018-01-19T23:37:51.844Z,6.05
2018-01-19T23:40:20.288Z,8.00
2018-01-19T23:42:48.654Z,8.07
2018-01-19T23:45:16.986Z,7.35
2018-01-19T23:47:45.338Z,6.97
2018-01-19T23:50:13.665Z,7.40
2018-01-19T23:52:42.006Z,6.95
2018-01-19T23:55:10.379Z,6.65
2018-01-19T23:57:38.724Z,7.10
